Time;durP1;ratioP1;P1;durP2;ratioP2;P2;SDS_P1;SDS_P2;PMS_P1;PMS_P2;Temp;Humidity;BMP_temperature;BMP_pressure;BME280_temperature;BME280_humidity;BME280_pressure;Samples;Min_cycle;Max_cycle;Signal;HPM_P1;HPM_P2
2022/12/24 00:01:36;;;;;;;65.15;12.05;;;11.40;99.90;;;11.43;96.83;100460.56;5054629;28;20041;-80
2022/12/24 00:04:05;;;;;;;62.25;11.70;;;11.30;99.90;;;11.48;97.32;100466.66;5053419;28;20059;-80
2022/12/24 00:06:33;;;;;;;66.22;12.23;;;11.30;99.90;;;11.45;97.30;100466.72;5054399;28;20064;-79
2022/12/24 00:09:03;;;;;;;59.42;11.27;;;11.20;99.90;;;11.42;97.35;100468.53;5054674;28;20060;-77
2022/12/24 00:11:32;;;;;;;61.20;12.75;;;11.20;99.90;;;11.46;97.60;100472.88;5054940;28;20048;-74
2022/12/24 00:14:00;;;;;;;64.93;11.75;;;11.20;99.90;;;11.39;97.29;100457.97;5054713;28;20044;-74
2022/12/24 00:16:29;;;;;;;66.60;12.98;;;11.20;99.90;;;11.43;97.23;100473.81;5054715;28;20540;-74
2022/12/24 00:18:57;;;;;;;60.13;11.55;;;11.20;99.90;;;11.48;97.15;100477.25;5054107;28;20068;-74
2022/12/24 00:21:25;;;;;;;61.03;11.93;;;11.20;99.90;;;11.42;96.85;100472.03;5054081;28;20495;-74
2022/12/24 00:23:54;;;;;;;67.35;11.88;;;11.20;99.90;;;11.56;96.30;100485.97;5053762;28;20041;-74
2022/12/24 00:26:23;;;;;;;65.90;12.60;;;11.30;99.90;;;11.70;95.82;100478.72;5053959;28;20094;-74
2022/12/24 00:28:52;;;;;;;61.57;12.17;;;11.40;99.90;;;11.65;95.09;100480.56;5054285;28;20120;-74
2022/12/24 00:31:20;;;;;;;58.97;12.05;;;11.50;99.90;;;11.59;95.40;100488.56;5053925;28;20482;-74
2022/12/24 00:33:49;;;;;;;64.72;11.43;;;11.40;99.90;;;11.33;95.58;100453.63;5053862;28;20552;-74
2022/12/24 00:36:19;;;;;;;64.28;11.30;;;11.30;99.90;;;11.39;96.09;100487.09;5054104;28;20063;-74
2022/12/24 00:38:48;;;;;;;51.92;9.88;;;11.20;99.90;;;11.29;96.28;100482.81;5053926;28;20491;-74
2022/12/24 00:41:27;;;;;;;64.20;12.23;;;11.10;99.90;;;11.10;96.46;100458.38;5052827;28;20043;-74
2022/12/24 00:44:01;;;;;;;66.45;12.25;;;11.10;99.90;;;11.15;96.63;100475.06;5053734;28;20099;-74
2022/12/24 00:46:31;;;;;;;56.47;11.15;;;11.10;99.90;;;11.38;96.40;100510.03;5052780;28;20048;-74
2022/12/24 00:49:00;;;;;;;;;;;11.10;99.90;;;11.40;96.40;100515.34;5054693;28;20489;-74
2022/12/24 00:51:29;;;;;;;55.88;11.02;;;11.20;99.90;;;11.35;96.19;100506.56;5053637;28;20270;-74
2022/12/24 00:53:58;;;;;;;60.38;12.32;;;11.20;99.90;;;11.22;96.22;100505.00;5052605;28;20060;-74
2022/12/24 00:56:27;;;;;;;70.90;12.55;;;11.10;99.90;;;11.35;96.80;100536.56;5053569;28;20445;-74
2022/12/24 00:58:57;;;;;;;60.85;12.45;;;11.10;99.90;;;11.37;96.55;100520.66;5053962;28;20048;-74
2022/12/24 01:01:26;;;;;;;54.60;12.38;;;11.10;99.90;;;11.40;96.37;100531.22;5053814;28;20071;-74
2022/12/24 01:05:09;;;;;;;68.85;12.00;;;11.10;99.90;;;11.20;96.67;100509.41;5053518;28;20045;-74
2022/12/24 01:06:43;;;;;;;64.90;12.02;;;11.10;99.90;;;11.24;97.16;100533.19;5053633;28;20127;-74
2022/12/24 01:09:11;;;;;;;74.07;14.25;;;11.00;99.90;;;11.33;97.06;100545.44;5052818;28;20052;-74
2022/12/24 01:11:40;;;;;;;60.90;11.82;;;11.00;99.90;;;11.37;96.73;100541.84;5053668;28;20049;-74
2022/12/24 01:14:10;;;;;;;63.10;11.80;;;11.10;99.90;;;11.38;96.84;100552.41;5053288;28;20119;-74
2022/12/24 01:16:38;;;;;;;70.95;12.55;;;11.10;99.90;;;11.20;96.55;100525.31;5053051;28;20037;-74
2022/12/24 01:19:07;;;;;;;72.00;13.07;;;11.10;99.90;;;11.33;96.95;100548.06;5053438;28;20049;-74
2022/12/24 01:21:36;;;;;;;71.53;11.95;;;11.10;99.90;;;11.40;96.68;100561.22;5052039;28;20505;-74
2022/12/24 01:24:05;;;;;;;61.95;11.18;;;11.10;99.90;;;11.32;96.73;100557.81;5053320;28;20531;-74
2022/12/24 01:26:33;;;;;;;59.22;11.73;;;11.10;99.90;;;11.42;96.71;100558.56;5053209;28;20136;-74
2022/12/24 01:29:01;;;;;;;54.30;11.10;;;11.10;99.90;;;11.39;96.23;100537.41;5053215;28;20048;-74
2022/12/24 01:31:31;;;;;;;52.95;10.95;;;11.20;99.90;;;11.58;96.05;100553.03;5053432;28;20047;-74
2022/12/24 01:33:59;;;;;;;48.90;11.50;;;11.30;99.90;;;11.31;96.11;100523.38;5053171;28;20048;-74
2022/12/24 01:36:28;;;;;;;65.35;12.27;;;11.20;99.90;;;11.52;95.72;100566.34;5052353;28;20367;-74
2022/12/24 01:38:56;;;;;;;55.08;11.07;;;11.30;99.90;;;11.52;95.88;100579.59;5068403;28;20183;-74
2022/12/24 01:44:25;;;;;;;55.03;9.50;;;11.30;99.90;;;11.50;95.74;100578.75;5052913;28;20119;-74
2022/12/24 01:47:11;;;;;;;54.40;10.63;;;11.30;99.90;;;11.47;95.95;100578.81;5052996;28;20505;-74
2022/12/24 01:49:45;;;;;;;55.08;10.27;;;11.30;99.90;;;11.35;95.79;100549.81;5052647;28;20041;-74
2022/12/24 01:52:19;;;;;;;49.35;10.15;;;11.30;99.90;;;11.46;96.01;100569.09;5052617;28;20064;-74
2022/12/24 01:54:53;;;;;;;49.30;9.73;;;11.30;99.90;;;11.40;95.88;100571.81;5052834;28;20033;-74
2022/12/24 01:57:25;;;;;;;47.92;9.43;;;11.30;99.90;;;11.45;96.21;100585.88;5052263;28;20495;-73
2022/12/24 01:59:58;;;;;;;43.30;9.98;;;11.20;99.90;;;11.45;96.40;100588.53;5052502;28;20044;-74
2022/12/24 02:02:29;;;;;;;51.00;9.55;;;11.20;99.90;;;11.49;96.33;100587.59;5052482;28;20091;-74
2022/12/24 02:05:03;;;;;;;48.50;9.27;;;11.20;99.90;;;11.46;96.65;100594.69;5052293;28;20131;-74
2022/12/24 02:07:32;;;;;;;39.38;8.95;;;11.20;99.90;;;11.46;97.01;100597.34;5067959;28;20052;-72
2022/12/24 02:10:02;;;;;;;54.95;9.80;;;11.20;99.90;;;11.42;97.09;100604.44;5052604;28;20045;-74
2022/12/24 02:12:35;;;;;;;48.15;10.98;;;11.20;99.90;;;11.49;96.97;100607.91;5052287;28;20553;-74
2022/12/24 02:15:04;;;;;;;51.67;10.80;;;11.30;99.90;;;11.45;97.31;100598.25;5067901;28;20483;-74
2022/12/24 02:17:41;;;;;;;50.50;10.07;;;11.30;99.90;;;11.57;97.16;100609.56;5052239;28;20041;-74
2022/12/24 02:20:46;;;;;;;42.50;10.13;;;11.30;99.90;;;11.67;96.74;100616.53;5052149;28;20124;-74
2022/12/24 02:24:00;;;;;;;43.20;9.50;;;11.40;99.90;;;11.74;96.87;100615.56;5051149;28;20079;-74
2022/12/24 02:26:53;;;;;;;45.80;9.25;;;11.40;99.90;;;11.64;97.01;100602.41;5005870;28;20059;-74
2022/12/24 02:30:04;;;;;;;51.95;11.35;;;11.50;99.90;;;11.74;97.30;100626.16;5052374;28;20502;-74
2022/12/24 02:32:43;;;;;;;51.88;10.32;;;11.50;99.90;;;11.83;97.32;100624.28;5049556;28;20220;-74
2022/12/24 02:35:19;;;;;;;54.75;11.30;;;11.60;99.90;;;11.84;97.54;100621.63;5051081;28;20502;-74
2022/12/24 02:37:53;;;;;;;51.80;10.48;;;11.60;99.90;;;11.61;97.66;100583.91;5052436;28;20068;-74
2022/12/24 02:40:27;;;;;;;56.15;11.57;;;11.60;99.90;;;11.83;97.46;100624.28;5052136;28;20044;-74
2022/12/24 02:43:01;;;;;;;53.53;10.98;;;11.60;99.90;;;11.83;97.49;100617.19;5052619;28;20051;-74
2022/12/24 02:45:33;;;;;;;52.67;10.68;;;11.60;99.90;;;11.61;97.32;100576.81;5051939;28;20067;-74
2022/12/24 02:48:01;;;;;;;57.47;11.30;;;11.60;99.90;;;11.83;97.68;100625.13;5055209;28;20045;-74
2022/12/24 02:50:30;;;;;;;59.55;11.57;;;11.50;99.90;;;11.90;97.08;100628.59;5055784;28;20116;-74
2022/12/24 02:52:58;;;;;;;60.60;11.80;;;11.60;99.90;;;11.86;97.07;100629.53;5071434;28;20049;-74
2022/12/24 02:55:39;;;;;;;61.53;12.02;;;11.60;99.90;;;11.69;97.16;100627.97;5055767;28;20051;-74
2022/12/24 02:58:25;;;;;;;55.17;11.13;;;11.50;99.90;;;11.81;97.30;100636.69;5055880;28;20056;-74
2022/12/24 03:01:15;;;;;;;59.03;11.77;;;11.50;99.90;;;11.63;97.92;100621.88;5055960;28;20073;-74
2022/12/24 03:04:01;;;;;;;55.92;10.80;;;11.50;99.90;;;11.76;97.58;100636.72;5055580;28;20584;-74
2022/12/24 03:06:40;;;;;;;56.75;12.15;;;11.60;99.90;;;11.74;98.00;100636.75;5054526;28;20073;-74
2022/12/24 03:09:18;;;;;;;55.38;11.57;;;11.60;99.90;;;11.86;97.91;100637.47;5055845;28;20052;-74
2022/12/24 03:11:58;;;;;;;59.70;11.85;;;11.60;99.90;;;11.50;98.06;100618.47;5055475;28;20051;-74
2022/12/24 03:14:28;;;;;;;58.17;11.50;;;11.60;99.90;;;11.77;98.39;100660.56;5054493;28;20140;-74
2022/12/24 03:17:01;;;;;;;58.55;11.10;;;11.60;99.90;;;11.79;98.76;100661.41;5055753;28;20239;-74
2022/12/24 03:19:31;;;;;;;56.03;11.70;;;11.60;99.90;;;11.83;99.05;100658.75;5055449;28;20095;-74
2022/12/24 03:22:03;;;;;;;57.97;11.48;;;11.60;99.90;;;11.34;98.61;100566.59;5055867;28;20072;-74
2022/12/24 03:24:32;;;;;;;58.78;11.88;;;11.60;99.90;;;11.71;98.86;100628.81;5055373;28;20052;-74
2022/12/24 03:27:01;;;;;;;54.08;10.73;;;11.60;99.90;;;11.83;99.10;100656.09;5055181;28;20641;-74
2022/12/24 03:29:30;;;;;;;60.85;12.10;;;11.60;99.90;;;11.91;98.78;100670.97;5055247;28;20470;-74
2022/12/24 03:32:03;;;;;;;58.92;11.68;;;11.60;99.90;;;11.84;98.95;100671.06;5055309;28;20045;-74
2022/12/24 03:34:32;;;;;;;62.20;11.63;;;11.60;99.90;;;11.84;98.98;100668.44;5055209;28;20053;-74
2022/12/24 03:37:00;;;;;;;56.72;10.68;;;11.60;99.90;;;11.78;99.30;100666.75;5070751;28;20049;-74
2022/12/24 03:39:29;;;;;;;52.25;11.38;;;11.50;99.90;;;11.74;99.33;100655.31;5055079;28;20431;-74
2022/12/24 03:41:57;;;;;;;59.85;11.80;;;11.50;99.90;;;11.78;99.41;100659.69;5055105;28;20051;-75
2022/12/24 03:44:25;;;;;;;54.45;11.00;;;11.50;99.90;;;11.75;99.52;100682.66;5055377;28;20040;-74
2022/12/24 03:46:54;;;;;;;52.65;10.57;;;11.50;99.90;;;11.75;99.50;100656.16;5055282;28;20045;-74
2022/12/24 03:49:23;;;;;;;57.97;11.65;;;11.60;99.90;;;11.83;99.06;100656.94;5055398;28;20405;-74
2022/12/24 03:51:52;;;;;;;60.13;11.50;;;11.60;99.90;;;11.82;98.88;100665.81;5070715;28;20076;-74
2022/12/24 03:54:20;;;;;;;52.30;11.05;;;11.60;99.90;;;11.76;99.04;100660.59;5054777;28;20560;-74
2022/12/24 03:56:48;;;;;;;49.35;11.52;;;11.50;99.90;;;11.84;98.83;100665.78;5054932;28;20040;-74
2022/12/24 03:59:17;;;;;;;54.58;10.88;;;11.60;99.90;;;11.86;98.60;100666.63;5053843;28;20443;-74
2022/12/24 04:01:45;;;;;;;46.70;10.48;;;11.60;99.90;;;11.85;98.72;100671.06;5070289;28;20048;-74
2022/12/24 04:04:14;;;;;;;56.80;10.20;;;11.60;99.90;;;11.79;98.77;100663.19;5055001;28;20091;-75
2022/12/24 04:06:44;;;;;;;59.15;10.65;;;11.50;99.90;;;11.29;98.96;100586.97;5055005;28;20119;-74
2022/12/24 04:09:12;;;;;;;46.50;10.90;;;11.50;99.90;;;11.84;98.88;100676.38;5055037;28;20499;-74
2022/12/24 04:11:40;;;;;;;51.83;10.90;;;11.50;99.90;;;11.84;99.16;100674.63;5054609;28;20294;-74
2022/12/24 04:14:09;;;;;;;47.42;10.75;;;11.50;99.90;;;11.66;99.09;100654.53;5054322;28;20053;-74
2022/12/24 04:16:37;;;;;;;46.78;9.38;;;11.50;99.90;;;11.85;99.05;100671.06;5054580;28;20044;-74
2022/12/24 04:19:06;;;;;;;47.15;10.50;;;11.60;99.90;;;11.92;98.49;100674.50;5054437;28;20048;-74
2022/12/24 04:21:34;;;;;;;45.25;10.25;;;11.60;99.90;;;11.84;98.64;100673.72;5054482;28;20073;-74
2022/12/24 04:24:05;;;;;;;49.08;10.23;;;11.60;99.90;;;11.81;98.93;100676.44;5054173;28;20059;-74
2022/12/24 04:26:33;;;;;;;57.40;10.85;;;11.60;99.90;;;11.87;98.81;100689.56;5053285;28;20049;-74
2022/12/24 04:29:02;;;;;;;53.70;11.63;;;11.60;99.90;;;11.85;99.13;100696.66;5053978;28;20041;-74
2022/12/24 04:31:30;;;;;;;48.72;10.27;;;11.60;99.90;;;11.84;99.27;100687.88;5053897;28;20072;-74
2022/12/24 04:33:59;;;;;;;50.60;10.60;;;11.60;99.90;;;11.77;99.27;100695.00;5053952;28;20045;-74
2022/12/24 04:36:27;;;;;;;55.83;11.85;;;11.50;99.90;;;11.30;99.34;100609.91;5054171;28;20041;-74
2022/12/24 04:38:55;;;;;;;60.15;10.93;;;11.60;99.90;;;11.78;99.30;100701.19;5053771;28;20041;-74
2022/12/24 04:41:25;;;;;;;50.55;10.88;;;11.60;99.90;;;11.77;99.80;100702.94;5053763;28;20110;-74
2022/12/24 04:43:55;;;;;;;57.50;12.35;;;11.50;99.90;;;11.82;99.67;100712.63;5053668;28;20041;-72
2022/12/24 04:46:29;;;;;;;51.37;11.50;;;11.60;99.90;;;11.85;99.59;100700.19;5053651;28;20114;-74
2022/12/24 04:48:58;;;;;;;60.33;11.60;;;11.60;99.90;;;11.79;98.96;100698.50;5053685;28;20037;-74
2022/12/24 04:51:28;;;;;;;57.63;11.48;;;11.70;99.90;;;11.79;99.22;100698.50;5053799;28;20115;-74
2022/12/24 04:53:57;;;;;;;55.50;11.40;;;11.60;99.90;;;11.82;99.74;100717.91;5053560;28;20098;-74
2022/12/24 04:56:29;;;;;;;54.40;11.65;;;11.60;99.90;;;11.81;99.66;100706.44;5053591;28;20119;-74
2022/12/24 04:58:59;;;;;;;64.90;12.40;;;11.60;99.90;;;11.75;99.58;100698.56;5053837;28;20083;-74
2022/12/24 05:01:30;;;;;;;66.93;11.88;;;11.60;99.90;;;11.81;99.95;100710.88;5053444;28;20411;-74
2022/12/24 05:03:59;;;;;;;58.20;11.90;;;11.60;99.90;;;11.88;99.89;100713.44;5053471;28;20408;-74
2022/12/24 05:06:31;;;;;;;60.30;11.50;;;11.60;99.90;;;11.80;100.00;100715.28;5053186;28;20048;-74
2022/12/24 05:09:00;;;;;;;62.00;12.90;;;11.60;99.90;;;11.82;100.00;100723.22;5052119;28;20121;-74
2022/12/24 05:11:31;;;;;;;61.38;13.02;;;11.60;99.90;;;11.80;99.93;100717.94;5053370;28;20068;-74
2022/12/24 05:13:59;;;;;;;64.38;12.48;;;11.60;99.90;;;11.79;100.00;100735.59;5068730;28;20136;-74
2022/12/24 05:16:28;;;;;;;57.45;11.25;;;11.50;99.90;;;11.87;100.00;100735.50;5053119;28;20115;-74
2022/12/24 05:18:56;;;;;;;65.00;11.77;;;11.60;99.90;;;11.85;100.00;100709.91;5068625;28;20068;-74
2022/12/24 05:21:25;;;;;;;65.75;12.57;;;11.70;99.90;;;11.91;99.75;100733.69;5052994;28;20410;-74
2022/12/24 05:26:43;;;;;;;67.00;11.55;;;11.70;99.90;;;11.93;99.74;100726.59;5052896;28;20037;-73
2022/12/24 05:29:12;;;;;;;66.70;13.10;;;11.70;99.90;;;11.81;99.66;100708.22;5053212;28;20048;-74
2022/12/24 05:31:43;;;;;;;58.95;12.13;;;11.60;99.90;;;11.94;99.57;100717.78;5051730;28;20087;-74
2022/12/24 05:34:13;;;;;;;58.45;12.75;;;11.70;99.90;;;12.00;99.13;100723.00;5052822;28;20076;-74
2022/12/24 05:36:42;;;;;;;61.95;12.50;;;11.70;99.90;;;11.99;98.87;100723.88;5053046;28;20040;-74
2022/12/24 05:39:14;;;;;;;68.13;12.15;;;11.70;99.90;;;11.82;98.61;100707.31;5052636;28;20095;-74
2022/12/24 05:41:47;;;;;;;67.60;12.32;;;11.70;99.90;;;11.94;98.77;100734.56;5051628;28;20044;-74
2022/12/24 05:44:16;;;;;;;57.63;12.15;;;11.70;99.90;;;11.75;98.64;100710.03;5052892;28;20116;-74
2022/12/24 05:46:44;;;;;;;63.45;12.85;;;11.70;99.90;;;11.99;98.27;100740.69;5053043;28;20041;-74
2022/12/24 05:49:13;;;;;;;55.72;13.23;;;11.70;99.90;;;11.89;98.22;100736.38;5052814;28;20533;-74
2022/12/24 05:51:42;;;;;;;64.00;12.98;;;11.70;99.90;;;11.94;98.31;100742.53;5052515;28;20060;-74
2022/12/24 05:54:11;;;;;;;64.30;12.73;;;11.70;99.90;;;11.73;98.17;100711.81;5068034;28;20481;-74
2022/12/24 05:56:39;;;;;;;67.57;12.38;;;11.60;99.90;;;11.81;98.42;100742.69;5052411;28;20068;-74
2022/12/24 05:59:09;;;;;;;67.70;13.82;;;11.60;99.90;;;11.92;98.17;100751.38;5052417;28;20048;-74
2022/12/24 06:01:37;;;;;;;69.07;12.43;;;11.60;99.90;;;11.85;97.83;100749.66;5052375;28;20506;-74
2022/12/24 06:04:06;;;;;;;62.42;11.93;;;11.60;99.90;;;11.66;98.13;100731.34;5052336;28;20053;-74
2022/12/24 06:06:34;;;;;;;69.03;12.88;;;11.60;99.90;;;11.58;97.96;100735.81;5052316;28;20071;-74
2022/12/24 06:09:03;;;;;;;75.00;13.63;;;11.50;99.90;;;10.79;98.29;100627.19;5052465;28;20041;-74
2022/12/24 06:11:31;;;;;;;69.95;14.82;;;11.40;99.90;;;11.71;98.76;100779.00;5052582;28;20111;-74
2022/12/24 06:14:00;;;;;;;64.93;12.52;;;11.40;99.90;;;11.30;98.45;100725.53;5052181;28;20056;-74
2022/12/24 06:16:29;;;;;;;72.55;13.88;;;11.30;99.90;;;11.64;98.71;100780.78;5052559;28;20037;-74
2022/12/24 06:18:58;;;;;;;65.57;13.23;;;11.40;99.90;;;11.64;98.49;100786.09;5052335;28;20095;-74
2022/12/24 06:21:26;;;;;;;66.75;12.75;;;11.40;99.90;;;11.63;98.24;100776.38;5053301;28;20290;-74
2022/12/24 06:23:54;;;;;;;64.28;13.07;;;11.30;99.90;;;11.64;98.00;100783.44;5056722;28;20402;-74
2022/12/24 06:26:23;;;;;;;63.80;13.73;;;11.40;99.90;;;11.63;97.76;100786.97;5056545;28;20044;-74
2022/12/24 06:28:52;;;;;;;66.20;13.18;;;11.40;99.90;;;11.61;97.71;100791.41;5056942;28;20083;-74
2022/12/24 06:31:23;;;;;;;70.22;12.82;;;11.30;99.90;;;11.44;97.79;100777.44;5056647;28;20052;-74
2022/12/24 06:33:53;;;;;;;74.13;14.40;;;11.30;99.90;;;11.53;97.96;100792.38;5056772;28;20450;-74
2022/12/24 06:36:24;;;;;;;62.40;12.75;;;11.20;99.90;;;11.06;97.65;100702.81;5056915;28;20041;-74
2022/12/24 06:38:54;;;;;;;76.20;14.10;;;11.30;99.90;;;11.49;97.59;100780.94;5056406;28;20123;-74
2022/12/24 06:41:23;;;;;;;75.50;13.55;;;11.30;99.90;;;11.38;97.40;100758.97;5072266;28;20511;-74
2022/12/24 06:43:53;;;;;;;63.25;13.00;;;11.20;99.90;;;11.52;97.53;100788.84;5056884;28;20420;-74
2022/12/24 06:46:22;;;;;;;76.25;14.70;;;11.30;99.90;;;11.50;97.12;100790.63;5057045;28;20072;-74
2022/12/24 06:48:53;;;;;;;66.38;13.15;;;11.20;99.90;;;11.47;97.10;100795.09;5056242;28;20144;-74
2022/12/24 06:51:22;;;;;;;65.65;13.43;;;11.20;99.90;;;11.40;96.88;100793.41;5056588;28;20099;-74
2022/12/24 06:53:51;;;;;;;62.92;12.65;;;11.10;99.90;;;11.36;97.02;100803.13;5056133;28;20068;-74
2022/12/24 06:56:20;;;;;;;72.50;13.32;;;11.10;99.90;;;11.36;97.07;100805.75;5056167;28;20128;-74
2022/12/24 06:58:49;;;;;;;63.20;13.05;;;11.10;99.90;;;11.30;97.23;100807.59;5055946;28;20553;-74
2022/12/24 07:01:19;;;;;;;62.38;12.60;;;11.00;99.90;;;10.58;97.33;100704.09;5055768;28;20384;-74
2022/12/24 07:03:48;;;;;;;59.22;12.45;;;11.00;99.90;;;11.26;97.64;100824.41;5056018;28;20407;-74
2022/12/24 07:06:25;;;;;;;59.78;13.35;;;10.90;99.90;;;11.26;97.57;100814.69;5056225;28;20045;-75
2022/12/24 07:08:53;;;;;;;74.78;13.93;;;11.00;99.90;;;11.24;97.50;100819.13;5056022;28;20036;-74
2022/12/24 07:11:23;;;;;;;74.60;14.13;;;11.00;99.90;;;11.27;97.53;100811.16;5056127;28;20069;-74
2022/12/24 07:13:51;;;;;;;64.82;13.30;;;11.00;99.90;;;11.28;97.50;100814.69;5055779;28;20144;-74
2022/12/24 07:16:20;;;;;;;69.63;13.23;;;11.00;99.90;;;11.28;97.37;100818.22;5055406;28;20482;-74
2022/12/24 07:18:49;;;;;;;66.53;12.60;;;11.00;99.90;;;10.78;97.30;100739.19;5054317;28;20487;-74
2022/12/24 07:21:18;;;;;;;61.97;12.52;;;11.00;99.90;;;11.27;97.84;100827.03;5055527;28;20060;-74
2022/12/24 07:23:47;;;;;;;70.90;13.43;;;11.00;99.90;;;11.36;98.03;100831.41;5055487;28;20041;-74
2022/12/24 07:26:15;;;;;;;74.40;12.57;;;11.00;99.90;;;11.36;97.59;100839.34;5055162;28;20470;-73
2022/12/24 07:28:43;;;;;;;66.32;12.95;;;11.10;99.90;;;11.38;97.87;100846.34;5055072;28;20504;-74
2022/12/24 07:31:12;;;;;;;62.92;13.02;;;11.10;99.90;;;11.28;98.20;100836.75;5055399;28;20395;-74
2022/12/24 07:33:40;;;;;;;70.03;13.05;;;11.10;99.90;;;11.27;98.45;100842.03;5055553;28;20040;-74
2022/12/24 07:36:15;;;;;;;55.28;11.93;;;11.10;99.90;;;11.25;98.73;100839.41;5054998;28;20132;-76
2022/12/24 07:38:45;;;;;;;58.58;12.02;;;11.10;99.90;;;11.29;99.04;100854.38;5055570;28;20105;-75
2022/12/24 07:41:14;;;;;;;59.33;13.03;;;11.00;99.90;;;11.27;99.42;100866.75;5055179;28;20090;-76
2022/12/24 07:43:42;;;;;;;67.85;12.65;;;11.00;99.90;;;11.22;99.33;100871.22;5055173;28;20284;-76
2022/12/24 07:46:11;;;;;;;63.85;12.75;;;11.00;99.90;;;11.18;99.38;100881.81;5055360;28;20067;-76
2022/12/24 07:48:39;;;;;;;61.15;13.00;;;11.00;99.90;;;11.25;99.34;100889.72;5054842;28;20040;-77
2022/12/24 07:51:08;;;;;;;71.65;13.57;;;11.00;99.90;;;10.75;99.39;100815.94;5054767;28;20116;-78
2022/12/24 07:53:36;;;;;;;69.53;13.23;;;10.90;99.90;;;11.26;99.70;100901.19;5054988;28;20048;-77
2022/12/24 07:56:07;;;;;;;72.85;13.40;;;11.00;99.90;;;11.26;100.00;100904.72;5054786;28;20048;-76
2022/12/24 07:58:40;;;;;;;76.15;14.55;;;11.00;99.90;;;11.24;100.00;100898.56;5054706;28;20139;-77
2022/12/24 08:01:11;;;;;;;80.60;15.15;;;11.00;99.90;;;11.28;100.00;100907.34;5054523;28;20045;-77
2022/12/24 08:03:40;;;;;;;76.32;13.80;;;11.00;99.90;;;10.87;100.00;100828.22;5054710;28;20043;-73
2022/12/24 08:06:09;;;;;;;82.40;15.52;;;11.10;99.90;;;11.35;100.00;100909.94;5054673;28;20052;-73
2022/12/24 08:08:38;;;;;;;89.28;15.07;;;11.10;99.90;;;11.37;100.00;100900.22;5054542;28;20045;-74
2022/12/24 08:11:08;;;;;;;72.25;14.23;;;11.10;99.90;;;11.43;100.00;100905.47;5054270;28;20044;-74
2022/12/24 08:13:36;;;;;;;77.68;14.50;;;11.20;99.90;;;11.42;100.00;100913.44;5054074;28;20041;-73
2022/12/24 08:16:05;;;;;;;76.85;13.82;;;11.20;99.90;;;11.46;100.00;100915.16;5054517;28;20053;-71
2022/12/24 08:18:34;;;;;;;67.63;14.20;;;11.20;99.90;;;11.39;100.00;100914.34;5054421;28;20459;-72
2022/12/24 08:21:03;;;;;;;77.55;14.52;;;11.20;99.90;;;11.53;100.00;100922.19;5054308;28;20072;-74
2022/12/24 08:23:31;;;;;;;82.32;14.40;;;11.20;99.90;;;11.61;100.00;100929.16;5054520;28;20429;-74
2022/12/24 08:26:00;;;;;;;78.35;15.65;;;11.30;99.90;;;10.88;100.00;100825.56;5054557;28;20052;-75
2022/12/24 08:28:30;;;;;;;69.95;14.60;;;11.30;99.90;;;11.51;100.00;100940.75;5053958;28;20041;-75
2022/12/24 08:31:00;;;;;;;77.57;14.25;;;11.30;99.90;;;11.50;100.00;100944.25;5054442;28;20055;-76
2022/12/24 08:33:28;;;;;;;69.65;14.65;;;11.20;99.90;;;11.48;100.00;100942.50;5053887;28;20122;-73
2022/12/24 08:35:56;;;;;;;71.65;13.25;;;11.20;99.90;;;11.47;100.00;100959.31;5053704;28;20037;-73
2022/12/24 08:38:25;;;;;;;60.63;12.32;;;11.20;99.90;;;11.29;100.00;100920.56;5053985;28;20044;-73
2022/12/24 08:40:54;;;;;;;80.88;14.50;;;11.20;99.90;;;11.44;100.00;100948.75;5054571;28;20057;-75
2022/12/24 08:43:25;;;;;;;67.07;13.30;;;11.20;99.90;;;11.50;100.00;100943.38;5053956;28;20055;-74
2022/12/24 08:45:55;;;;;;;;;;;11.30;99.90;;;11.56;100.00;100970.72;5053664;28;20401;-75
2022/12/24 08:48:23;;;;;;;71.00;13.07;;;11.30;99.90;;;11.49;100.00;100955.75;5053690;28;19971;-70
2022/12/24 08:50:51;;;;;;;74.05;13.05;;;11.40;99.90;;;11.60;100.00;100976.88;5053958;28;20051;-73
2022/12/24 08:53:20;;;;;;;59.33;12.23;;;11.30;99.90;;;11.56;100.00;100981.31;5053964;28;20091;-75
2022/12/24 08:55:48;;;;;;;63.13;13.10;;;11.30;99.90;;;11.61;100.00;100987.44;5054010;28;20045;-75
2022/12/24 08:58:23;;;;;;;69.65;13.48;;;11.30;99.90;;;11.07;100.00;100899.56;5069068;28;20060;-83
2022/12/24 09:00:51;;;;;;;58.47;13.02;;;11.40;99.90;;;11.65;100.00;100993.63;5053777;28;20398;-84
2022/12/24 09:03:21;;;;;;;67.78;12.90;;;11.40;99.90;;;11.63;100.00;101001.56;5053310;28;20079;-79
2022/12/24 09:05:55;;;;;;;69.10;13.02;;;11.40;99.90;;;11.44;100.00;100969.94;5052392;28;20069;-73
2022/12/24 09:08:24;;;;;;;67.50;13.38;;;11.40;99.90;;;11.72;100.00;100995.38;5053471;28;20053;-72
2022/12/24 09:10:52;;;;;;;61.15;13.05;;;11.40;99.90;;;11.77;100.00;100994.44;5053357;28;20071;-74
2022/12/24 09:13:20;;;;;;;63.85;13.15;;;11.50;99.90;;;11.72;100.00;100998.91;5053242;28;20149;-77
2022/12/24 09:15:54;;;;;;;65.03;12.60;;;11.50;99.90;;;11.70;100.00;100997.16;5053737;28;20128;-77
2022/12/24 09:18:24;;;;;;;64.05;14.00;;;11.50;99.90;;;11.76;100.00;101000.66;5053296;28;20037;-75
2022/12/24 09:20:58;;;;;;;58.67;11.70;;;11.50;99.90;;;11.58;100.00;100987.47;5053183;28;20041;-76
2022/12/24 09:23:27;;;;;;;61.25;11.57;;;11.50;99.90;;;11.75;100.00;101016.53;5053176;28;20805;-73
2022/12/24 09:25:56;;;;;;;60.72;12.10;;;11.50;99.90;;;11.79;100.00;101018.28;5053279;28;20496;-78
2022/12/24 09:28:24;;;;;;;55.92;12.68;;;11.50;99.90;;;11.76;100.00;101010.34;5053769;28;20045;-78
2022/12/24 09:30:58;;;;;;;61.88;11.80;;;11.60;99.90;;;11.83;99.82;101021.81;5053082;28;20041;-79
2022/12/24 09:33:30;;;;;;;65.57;12.05;;;11.60;99.90;;;11.91;99.42;101030.56;5053377;28;20041;-75
2022/12/24 09:36:00;;;;;;;67.43;12.32;;;11.60;99.90;;;11.35;99.43;100927.59;5052981;28;20072;-80
2022/12/24 09:38:29;;;;;;;57.30;13.35;;;11.70;99.90;;;12.06;99.15;101039.28;5052219;28;20374;-75
2022/12/24 09:40:59;;;;;;;61.58;11.75;;;11.80;99.90;;;12.02;98.89;101023.44;5053178;28;20064;-76
2022/12/24 09:43:37;;;;;;;51.33;11.07;;;11.80;99.90;;;12.16;98.68;101032.13;5051966;28;20049;-77
2022/12/24 09:46:13;;;;;;;57.80;14.65;;;11.90;99.90;;;12.17;98.52;101048.06;5052808;28;20041;-83
2022/12/24 09:48:49;;;;;;;58.35;11.93;;;11.90;99.90;;;12.17;98.14;101036.56;5068321;28;20049;-81
2022/12/24 09:51:30;;;;;;;54.85;11.63;;;12.00;99.90;;;11.30;97.55;100876.44;5052947;28;20409;-77
2022/12/24 09:54:03;;;;;;;51.28;11.95;;;12.00;99.90;;;12.16;97.55;101042.72;5051144;28;20055;-74
2022/12/24 09:56:38;;;;;;;42.63;9.45;;;12.00;99.90;;;12.24;97.14;101062.13;5050356;28;20063;-77
2022/12/24 09:59:10;;;;;;;62.75;11.40;;;12.00;99.90;;;12.06;96.79;101030.47;5052764;28;20049;-82
2022/12/24 10:01:39;;;;;;;54.80;11.13;;;12.00;99.90;;;12.17;96.40;101061.31;5052440;28;20070;-78
2022/12/24 10:04:13;;;;;;;53.72;9.90;;;11.90;99.90;;;12.25;95.92;101055.94;5051709;28;20059;-76
2022/12/24 10:06:52;;;;;;;52.33;11.45;;;12.00;99.90;;;12.24;95.61;101070.06;5053022;28;20110;-79
2022/12/24 10:09:32;;;;;;;56.75;11.02;;;12.00;99.90;;;12.32;95.58;101055.88;5051170;28;20053;-78
2022/12/24 10:12:09;;;;;;;62.00;11.20;;;12.10;99.90;;;12.28;95.33;101045.28;5052406;28;20041;-81
2022/12/24 10:14:56;;;;;;;51.35;11.40;;;12.20;99.90;;;12.22;95.31;100977.28;5051259;28;20107;-82
2022/12/24 10:17:46;;;;;;;49.75;10.95;;;12.40;99.90;;;12.86;94.18;101053.56;5067965;28;20517;-78
2022/12/24 10:20:49;;;;;;;50.75;11.65;;;12.60;99.90;;;12.95;93.18;101035.75;5052254;28;20044;-74
2022/12/24 10:23:29;;;;;;;52.33;10.02;;;12.70;99.90;;;13.04;91.93;101058.72;5052806;28;20068;-88